sensor_id;sensor_type;location;lat;lon;timestamp;P1;durP1;ratioP1;P2;durP2;ratioP2
37851;SDS011;23691;52.486;4.650;2023-03-23T00:01:02;17.58;;;5.50;;
37851;SDS011;23691;52.486;4.650;2023-03-23T00:03:28;20.35;;;5.45;;
37851;SDS011;23691;52.486;4.650;2023-03-23T00:05:56;16.65;;;5.10;;
37851;SDS011;23691;52.486;4.650;2023-03-23T00:08:30;13.45;;;4.57;;
37851;SDS011;23691;52.486;4.650;2023-03-23T00:10:56;13.45;;;4.18;;
37851;SDS011;23691;52.486;4.650;2023-03-23T00:13:24;11.70;;;3.75;;
37851;SDS011;23691;52.486;4.650;2023-03-23T00:15:50;11.35;;;3.97;;
37851;SDS011;23691;52.486;4.650;2023-03-23T00:18:22;13.32;;;4.20;;
37851;SDS011;23691;52.486;4.650;2023-03-23T00:20:49;11.70;;;3.53;;
37851;SDS011;23691;52.486;4.650;2023-03-23T00:23:19;11.90;;;3.65;;
37851;SDS011;23691;52.486;4.650;2023-03-23T00:25:48;13.25;;;4.20;;
37851;SDS011;23691;52.486;4.650;2023-03-23T00:28:16;13.40;;;4.10;;
37851;SDS011;23691;52.486;4.650;2023-03-23T00:30:42;11.40;;;3.65;;
37851;SDS011;23691;52.486;4.650;2023-03-23T00:33:10;11.13;;;3.45;;
37851;SDS011;23691;52.486;4.650;2023-03-23T00:35:37;11.55;;;3.63;;
37851;SDS011;23691;52.486;4.650;2023-03-23T00:38:03;20.65;;;4.55;;
37851;SDS011;23691;52.486;4.650;2023-03-23T00:40:29;18.25;;;4.40;;
37851;SDS011;23691;52.486;4.650;2023-03-23T00:42:55;19.58;;;4.18;;
37851;SDS011;23691;52.486;4.650;2023-03-23T00:45:20;15.50;;;3.97;;
37851;SDS011;23691;52.486;4.650;2023-03-23T00:47:46;16.48;;;3.92;;
37851;SDS011;23691;52.486;4.650;2023-03-23T00:50:15;17.55;;;3.67;;
37851;SDS011;23691;52.486;4.650;2023-03-23T00:52:43;15.32;;;3.03;;
37851;SDS011;23691;52.486;4.650;2023-03-23T00:55:08;13.20;;;3.33;;
37851;SDS011;23691;52.486;4.650;2023-03-23T00:57:34;12.45;;;2.35;;
37851;SDS011;23691;52.486;4.650;2023-03-23T01:00:00;12.32;;;2.67;;
37851;SDS011;23691;52.486;4.650;2023-03-23T01:02:25;13.32;;;2.65;;
37851;SDS011;23691;52.486;4.650;2023-03-23T01:04:51;9.88;;;2.30;;
37851;SDS011;23691;52.486;4.650;2023-03-23T01:07:20;12.18;;;2.45;;
37851;SDS011;23691;52.486;4.650;2023-03-23T01:09:46;12.15;;;2.60;;
37851;SDS011;23691;52.486;4.650;2023-03-23T01:12:13;12.68;;;2.15;;
37851;SDS011;23691;52.486;4.650;2023-03-23T01:14:39;9.98;;;2.17;;
37851;SDS011;23691;52.486;4.650;2023-03-23T01:17:05;11.57;;;2.20;;
37851;SDS011;23691;52.486;4.650;2023-03-23T01:19:31;12.95;;;2.63;;
37851;SDS011;23691;52.486;4.650;2023-03-23T01:21:56;15.98;;;2.55;;
37851;SDS011;23691;52.486;4.650;2023-03-23T01:24:22;11.10;;;2.53;;
37851;SDS011;23691;52.486;4.650;2023-03-23T01:26:47;9.75;;;2.25;;
37851;SDS011;23691;52.486;4.650;2023-03-23T01:29:12;11.43;;;2.38;;
37851;SDS011;23691;52.486;4.650;2023-03-23T01:31:41;11.00;;;2.20;;
37851;SDS011;23691;52.486;4.650;2023-03-23T01:34:08;10.93;;;2.10;;
37851;SDS011;23691;52.486;4.650;2023-03-23T01:36:35;14.18;;;2.47;;
37851;SDS011;23691;52.486;4.650;2023-03-23T01:39:02;11.40;;;2.40;;
37851;SDS011;23691;52.486;4.650;2023-03-23T01:43:56;11.00;;;2.22;;
37851;SDS011;23691;52.486;4.650;2023-03-23T01:48:52;12.90;;;2.30;;
37851;SDS011;23691;52.486;4.650;2023-03-23T01:51:20;11.40;;;2.40;;
37851;SDS011;23691;52.486;4.650;2023-03-23T01:53:47;11.18;;;2.40;;
37851;SDS011;23691;52.486;4.650;2023-03-23T01:56:16;13.23;;;2.65;;
37851;SDS011;23691;52.486;4.650;2023-03-23T01:58:49;12.32;;;2.30;;
37851;SDS011;23691;52.486;4.650;2023-03-23T02:01:15;11.27;;;2.17;;
37851;SDS011;23691;52.486;4.650;2023-03-23T02:03:42;14.32;;;2.85;;
37851;SDS011;23691;52.486;4.650;2023-03-23T02:06:09;13.05;;;2.25;;
37851;SDS011;23691;52.486;4.650;2023-03-23T02:08:34;11.32;;;2.45;;
37851;SDS011;23691;52.486;4.650;2023-03-23T02:11:00;13.05;;;2.53;;
37851;SDS011;23691;52.486;4.650;2023-03-23T02:13:26;15.45;;;2.55;;
37851;SDS011;23691;52.486;4.650;2023-03-23T02:20:57;10.50;;;2.30;;
37851;SDS011;23691;52.486;4.650;2023-03-23T02:26:19;14.38;;;2.92;;
37851;SDS011;23691;52.486;4.650;2023-03-23T02:31:42;16.30;;;2.60;;
37851;SDS011;23691;52.486;4.650;2023-03-23T02:34:16;14.25;;;2.92;;
37851;SDS011;23691;52.486;4.650;2023-03-23T02:37:02;13.00;;;2.50;;
37851;SDS011;23691;52.486;4.650;2023-03-23T02:39:37;12.60;;;2.88;;
37851;SDS011;23691;52.486;4.650;2023-03-23T02:42:11;11.60;;;2.63;;
37851;SDS011;23691;52.486;4.650;2023-03-23T02:44:41;9.90;;;2.63;;
37851;SDS011;23691;52.486;4.650;2023-03-23T02:47:17;14.32;;;2.60;;
37851;SDS011;23691;52.486;4.650;2023-03-23T02:49:46;10.73;;;2.58;;
37851;SDS011;23691;52.486;4.650;2023-03-23T02:52:19;14.85;;;2.70;;
37851;SDS011;23691;52.486;4.650;2023-03-23T02:54:48;13.40;;;2.78;;
37851;SDS011;23691;52.486;4.650;2023-03-23T02:57:16;14.77;;;3.15;;
37851;SDS011;23691;52.486;4.650;2023-03-23T02:59:42;12.65;;;2.75;;
37851;SDS011;23691;52.486;4.650;2023-03-23T03:04:57;15.13;;;2.88;;
37851;SDS011;23691;52.486;4.650;2023-03-23T03:07:30;17.05;;;3.10;;
37851;SDS011;23691;52.486;4.650;2023-03-23T03:10:04;14.68;;;3.22;;
37851;SDS011;23691;52.486;4.650;2023-03-23T03:12:47;14.43;;;2.60;;
37851;SDS011;23691;52.486;4.650;2023-03-23T03:18:00;23.77;;;3.63;;
37851;SDS011;23691;52.486;4.650;2023-03-23T03:20:35;16.25;;;3.30;;
37851;SDS011;23691;52.486;4.650;2023-03-23T03:23:10;19.48;;;3.30;;
37851;SDS011;23691;52.486;4.650;2023-03-23T03:25:39;17.58;;;2.80;;
37851;SDS011;23691;52.486;4.650;2023-03-23T03:28:07;20.45;;;3.38;;
37851;SDS011;23691;52.486;4.650;2023-03-23T03:30:33;17.92;;;3.22;;
37851;SDS011;23691;52.486;4.650;2023-03-23T03:33:04;19.00;;;3.28;;
37851;SDS011;23691;52.486;4.650;2023-03-23T03:35:29;18.70;;;3.00;;
37851;SDS011;23691;52.486;4.650;2023-03-23T03:37:56;21.50;;;3.40;;
37851;SDS011;23691;52.486;4.650;2023-03-23T03:40:23;30.10;;;3.72;;
37851;SDS011;23691;52.486;4.650;2023-03-23T03:42:49;26.02;;;3.90;;
37851;SDS011;23691;52.486;4.650;2023-03-23T03:45:18;26.77;;;4.15;;
37851;SDS011;23691;52.486;4.650;2023-03-23T03:47:45;28.42;;;4.22;;
37851;SDS011;23691;52.486;4.650;2023-03-23T03:50:11;24.98;;;3.88;;
37851;SDS011;23691;52.486;4.650;2023-03-23T03:52:37;29.30;;;3.90;;
37851;SDS011;23691;52.486;4.650;2023-03-23T03:55:04;27.58;;;3.78;;
37851;SDS011;23691;52.486;4.650;2023-03-23T03:57:30;23.30;;;4.20;;
37851;SDS011;23691;52.486;4.650;2023-03-23T03:59:55;23.52;;;3.80;;
37851;SDS011;23691;52.486;4.650;2023-03-23T04:02:21;25.92;;;4.13;;
37851;SDS011;23691;52.486;4.650;2023-03-23T04:04:47;32.60;;;4.10;;
37851;SDS011;23691;52.486;4.650;2023-03-23T04:07:13;28.70;;;3.75;;
37851;SDS011;23691;52.486;4.650;2023-03-23T04:09:41;26.88;;;4.32;;
37851;SDS011;23691;52.486;4.650;2023-03-23T04:12:11;23.67;;;3.58;;
37851;SDS011;23691;52.486;4.650;2023-03-23T04:14:37;27.42;;;3.75;;
37851;SDS011;23691;52.486;4.650;2023-03-23T04:17:03;22.08;;;3.70;;
37851;SDS011;23691;52.486;4.650;2023-03-23T04:19:28;24.00;;;4.43;;
37851;SDS011;23691;52.486;4.650;2023-03-23T04:21:58;26.63;;;4.13;;
37851;SDS011;23691;52.486;4.650;2023-03-23T04:24:24;24.48;;;3.78;;
37851;SDS011;23691;52.486;4.650;2023-03-23T04:26:49;23.80;;;3.40;;
37851;SDS011;23691;52.486;4.650;2023-03-23T04:29:17;20.95;;;3.97;;
37851;SDS011;23691;52.486;4.650;2023-03-23T04:31:43;30.25;;;3.95;;
37851;SDS011;23691;52.486;4.650;2023-03-23T04:34:10;26.80;;;4.22;;
37851;SDS011;23691;52.486;4.650;2023-03-23T04:39:03;23.88;;;4.15;;
37851;SDS011;23691;52.486;4.650;2023-03-23T04:41:31;29.65;;;3.55;;
37851;SDS011;23691;52.486;4.650;2023-03-23T04:43:57;33.05;;;4.13;;
37851;SDS011;23691;52.486;4.650;2023-03-23T04:46:29;29.10;;;4.18;;
37851;SDS011;23691;52.486;4.650;2023-03-23T04:48:55;30.60;;;3.92;;
37851;SDS011;23691;52.486;4.650;2023-03-23T04:51:20;25.70;;;4.30;;
37851;SDS011;23691;52.486;4.650;2023-03-23T04:53:45;38.55;;;4.78;;
37851;SDS011;23691;52.486;4.650;2023-03-23T04:56:11;35.80;;;4.80;;
37851;SDS011;23691;52.486;4.650;2023-03-23T04:58:38;30.42;;;4.03;;
37851;SDS011;23691;52.486;4.650;2023-03-23T05:01:04;35.58;;;5.07;;
37851;SDS011;23691;52.486;4.650;2023-03-23T05:03:30;37.53;;;5.10;;
37851;SDS011;23691;52.486;4.650;2023-03-23T05:05:55;36.50;;;5.07;;
37851;SDS011;23691;52.486;4.650;2023-03-23T05:08:21;33.53;;;5.63;;
37851;SDS011;23691;52.486;4.650;2023-03-23T05:10:51;45.60;;;6.55;;
37851;SDS011;23691;52.486;4.650;2023-03-23T05:13:18;38.80;;;4.95;;
37851;SDS011;23691;52.486;4.650;2023-03-23T05:15:43;40.38;;;6.55;;
37851;SDS011;23691;52.486;4.650;2023-03-23T05:18:09;42.03;;;6.30;;
37851;SDS011;23691;52.486;4.650;2023-03-23T05:20:36;42.58;;;6.30;;
37851;SDS011;23691;52.486;4.650;2023-03-23T05:23:01;42.65;;;6.13;;
37851;SDS011;23691;52.486;4.650;2023-03-23T05:25:26;41.88;;;5.60;;
37851;SDS011;23691;52.486;4.650;2023-03-23T05:27:52;40.63;;;5.22;;
37851;SDS011;23691;52.486;4.650;2023-03-23T05:30:19;42.65;;;5.97;;
37851;SDS011;23691;52.486;4.650;2023-03-23T05:32:46;44.35;;;5.90;;
37851;SDS011;23691;52.486;4.650;2023-03-23T05:35:15;41.95;;;5.53;;
37851;SDS011;23691;52.486;4.650;2023-03-23T05:37:42;39.70;;;5.35;;
37851;SDS011;23691;52.486;4.650;2023-03-23T05:40:08;44.40;;;6.45;;
37851;SDS011;23691;52.486;4.650;2023-03-23T05:45:03;39.15;;;5.88;;
37851;SDS011;23691;52.486;4.650;2023-03-23T05:47:28;36.05;;;5.38;;
37851;SDS011;23691;52.486;4.650;2023-03-23T05:49:55;42.90;;;5.45;;
37851;SDS011;23691;52.486;4.650;2023-03-23T05:52:20;40.97;;;5.70;;
37851;SDS011;23691;52.486;4.650;2023-03-23T05:54:46;37.10;;;6.10;;
37851;SDS011;23691;52.486;4.650;2023-03-23T05:57:11;40.63;;;5.63;;
37851;SDS011;23691;52.486;4.650;2023-03-23T05:59:37;37.95;;;5.70;;
37851;SDS011;23691;52.486;4.650;2023-03-23T06:02:03;41.08;;;6.55;;
37851;SDS011;23691;52.486;4.650;2023-03-23T06:04:29;42.70;;;7.15;;
37851;SDS011;23691;52.486;4.650;2023-03-23T06:06:54;43.40;;;6.28;;
37851;SDS011;23691;52.486;4.650;2023-03-23T06:09:20;48.30;;;7.13;;
37851;SDS011;23691;52.486;4.650;2023-03-23T06:11:46;54.55;;;7.60;;
37851;SDS011;23691;52.486;4.650;2023-03-23T06:14:12;44.08;;;7.30;;
37851;SDS011;23691;52.486;4.650;2023-03-23T06:16:38;51.00;;;6.72;;
37851;SDS011;23691;52.486;4.650;2023-03-23T06:19:03;52.38;;;7.40;;
37851;SDS011;23691;52.486;4.650;2023-03-23T06:21:30;54.40;;;8.02;;
37851;SDS011;23691;52.486;4.650;2023-03-23T06:23:55;47.25;;;7.68;;
37851;SDS011;23691;52.486;4.650;2023-03-23T06:26:21;57.65;;;7.93;;
37851;SDS011;23691;52.486;4.650;2023-03-23T06:28:57;60.13;;;8.43;;
37851;SDS011;23691;52.486;4.650;2023-03-23T06:31:23;54.30;;;6.97;;
37851;SDS011;23691;52.486;4.650;2023-03-23T06:33:50;54.50;;;7.15;;
37851;SDS011;23691;52.486;4.650;2023-03-23T06:36:16;55.92;;;8.35;;
37851;SDS011;23691;52.486;4.650;2023-03-23T06:38:41;56.13;;;8.30;;
37851;SDS011;23691;52.486;4.650;2023-03-23T06:41:07;54.20;;;8.00;;
37851;SDS011;23691;52.486;4.650;2023-03-23T06:43:33;48.15;;;7.10;;
37851;SDS011;23691;52.486;4.650;2023-03-23T06:46:00;51.75;;;7.97;;
37851;SDS011;23691;52.486;4.650;2023-03-23T06:53:39;52.67;;;7.43;;
37851;SDS011;23691;52.486;4.650;2023-03-23T06:56:05;49.63;;;7.65;;
37851;SDS011;23691;52.486;4.650;2023-03-23T06:58:32;50.00;;;8.15;;
37851;SDS011;23691;52.486;4.650;2023-03-23T07:00:57;51.58;;;7.60;;
37851;SDS011;23691;52.486;4.650;2023-03-23T07:03:23;54.05;;;8.07;;
37851;SDS011;23691;52.486;4.650;2023-03-23T07:05:49;55.78;;;7.97;;
37851;SDS011;23691;52.486;4.650;2023-03-23T07:08:15;45.40;;;7.35;;
37851;SDS011;23691;52.486;4.650;2023-03-23T07:10:40;48.30;;;8.07;;
37851;SDS011;23691;52.486;4.650;2023-03-23T07:13:06;40.97;;;6.05;;
37851;SDS011;23691;52.486;4.650;2023-03-23T07:15:31;52.05;;;7.05;;
37851;SDS011;23691;52.486;4.650;2023-03-23T07:17:57;47.88;;;6.78;;
37851;SDS011;23691;52.486;4.650;2023-03-23T07:20:22;41.35;;;6.75;;
37851;SDS011;23691;52.486;4.650;2023-03-23T07:22:48;53.17;;;7.50;;
37851;SDS011;23691;52.486;4.650;2023-03-23T07:25:14;56.55;;;7.70;;
37851;SDS011;23691;52.486;4.650;2023-03-23T07:27:40;54.33;;;7.68;;
37851;SDS011;23691;52.486;4.650;2023-03-23T07:30:06;47.03;;;7.18;;
37851;SDS011;23691;52.486;4.650;2023-03-23T07:32:32;47.35;;;7.40;;
37851;SDS011;23691;52.486;4.650;2023-03-23T07:34:58;62.03;;;8.43;;
37851;SDS011;23691;52.486;4.650;2023-03-23T07:37:23;49.42;;;7.25;;
37851;SDS011;23691;52.486;4.650;2023-03-23T07:39:48;52.35;;;7.07;;
37851;SDS011;23691;52.486;4.650;2023-03-23T07:42:14;48.78;;;6.78;;
37851;SDS011;23691;52.486;4.650;2023-03-23T07:44:39;42.78;;;7.43;;
37851;SDS011;23691;52.486;4.650;2023-03-23T07:47:05;44.33;;;7.43;;
37851;SDS011;23691;52.486;4.650;2023-03-23T07:49:30;51.20;;;7.28;;
37851;SDS011;23691;52.486;4.650;2023-03-23T07:51:56;43.90;;;6.88;;
37851;SDS011;23691;52.486;4.650;2023-03-23T07:54:22;47.75;;;6.38;;
37851;SDS011;23691;52.486;4.650;2023-03-23T07:56:48;43.15;;;6.90;;
37851;SDS011;23691;52.486;4.650;2023-03-23T07:59:13;33.00;;;5.60;;
37851;SDS011;23691;52.486;4.650;2023-03-23T08:01:40;49.28;;;6.80;;
37851;SDS011;23691;52.486;4.650;2023-03-23T08:04:05;40.92;;;6.07;;
37851;SDS011;23691;52.486;4.650;2023-03-23T08:06:32;44.50;;;6.13;;
37851;SDS011;23691;52.486;4.650;2023-03-23T08:08:59;42.23;;;6.87;;
37851;SDS011;23691;52.486;4.650;2023-03-23T08:11:25;43.42;;;6.72;;
37851;SDS011;23691;52.486;4.650;2023-03-23T08:13:51;42.17;;;6.38;;
37851;SDS011;23691;52.486;4.650;2023-03-23T08:16:18;38.10;;;5.68;;
37851;SDS011;23691;52.486;4.650;2023-03-23T08:18:45;39.70;;;5.88;;
37851;SDS011;23691;52.486;4.650;2023-03-23T08:21:11;34.42;;;4.53;;
37851;SDS011;23691;52.486;4.650;2023-03-23T08:23:38;39.85;;;6.20;;
37851;SDS011;23691;52.486;4.650;2023-03-23T08:26:06;36.95;;;5.85;;
37851;SDS011;23691;52.486;4.650;2023-03-23T08:28:33;35.78;;;5.20;;
37851;SDS011;23691;52.486;4.650;2023-03-23T08:30:59;33.35;;;5.30;;
37851;SDS011;23691;52.486;4.650;2023-03-23T08:33:24;38.53;;;6.15;;
37851;SDS011;23691;52.486;4.650;2023-03-23T08:35:56;37.42;;;4.82;;
37851;SDS011;23691;52.486;4.650;2023-03-23T08:38:23;38.00;;;5.03;;
37851;SDS011;23691;52.486;4.650;2023-03-23T08:40:49;32.30;;;5.47;;
37851;SDS011;23691;52.486;4.650;2023-03-23T08:43:15;32.03;;;4.93;;
37851;SDS011;23691;52.486;4.650;2023-03-23T08:45:41;29.55;;;5.13;;
37851;SDS011;23691;52.486;4.650;2023-03-23T08:48:07;31.00;;;5.47;;
37851;SDS011;23691;52.486;4.650;2023-03-23T08:50:33;36.15;;;5.28;;
37851;SDS011;23691;52.486;4.650;2023-03-23T08:53:00;28.67;;;4.50;;
37851;SDS011;23691;52.486;4.650;2023-03-23T08:55:26;29.98;;;4.45;;
37851;SDS011;23691;52.486;4.650;2023-03-23T08:57:51;37.35;;;5.05;;
37851;SDS011;23691;52.486;4.650;2023-03-23T09:00:18;29.80;;;5.05;;
37851;SDS011;23691;52.486;4.650;2023-03-23T09:02:47;32.75;;;4.82;;
37851;SDS011;23691;52.486;4.650;2023-03-23T09:07:45;28.50;;;4.45;;
37851;SDS011;23691;52.486;4.650;2023-03-23T09:10:13;29.70;;;4.82;;
37851;SDS011;23691;52.486;4.650;2023-03-23T09:12:40;27.45;;;4.05;;
37851;SDS011;23691;52.486;4.650;2023-03-23T09:15:06;27.67;;;4.60;;
37851;SDS011;23691;52.486;4.650;2023-03-23T09:17:37;31.15;;;5.15;;
37851;SDS011;23691;52.486;4.650;2023-03-23T09:20:04;28.88;;;4.65;;
37851;SDS011;23691;52.486;4.650;2023-03-23T09:22:35;28.65;;;4.32;;
37851;SDS011;23691;52.486;4.650;2023-03-23T09:25:01;33.95;;;4.57;;
37851;SDS011;23691;52.486;4.650;2023-03-23T09:27:27;29.98;;;5.05;;
37851;SDS011;23691;52.486;4.650;2023-03-23T09:29:53;31.75;;;4.25;;
37851;SDS011;23691;52.486;4.650;2023-03-23T09:32:18;27.45;;;4.90;;
37851;SDS011;23691;52.486;4.650;2023-03-23T09:34:45;27.27;;;4.47;;
37851;SDS011;23691;52.486;4.650;2023-03-23T09:37:10;30.55;;;4.90;;
37851;SDS011;23691;52.486;4.650;2023-03-23T09:39:38;26.08;;;4.05;;
37851;SDS011;23691;52.486;4.650;2023-03-23T09:42:16;31.40;;;4.05;;
37851;SDS011;23691;52.486;4.650;2023-03-23T09:50:32;28.60;;;4.25;;
37851;SDS011;23691;52.486;4.650;2023-03-23T09:53:08;28.73;;;4.05;;
37851;SDS011;23691;52.486;4.650;2023-03-23T09:55:34;33.08;;;4.22;;
37851;SDS011;23691;52.486;4.650;2023-03-23T09:58:12;31.50;;;5.20;;
37851;SDS011;23691;52.486;4.650;2023-03-23T10:01:02;30.38;;;4.55;;
37851;SDS011;23691;52.486;4.650;2023-03-23T10:03:40;36.80;;;5.55;;
37851;SDS011;23691;52.486;4.650;2023-03-23T10:06:09;33.20;;;4.78;;
37851;SDS011;23691;52.486;4.650;2023-03-23T10:08:55;29.13;;;4.30;;
37851;SDS011;23691;52.486;4.650;2023-03-23T10:16:38;34.65;;;5.00;;
37851;SDS011;23691;52.486;4.650;2023-03-23T10:22:11;29.95;;;5.03;;
37851;SDS011;23691;52.486;4.650;2023-03-23T10:30:30;29.65;;;4.63;;
37851;SDS011;23691;52.486;4.650;2023-03-23T10:38:23;28.50;;;4.53;;
37851;SDS011;23691;52.486;4.650;2023-03-23T10:40:56;25.08;;;4.55;;
37851;SDS011;23691;52.486;4.650;2023-03-23T10:43:25;34.60;;;5.47;;
37851;SDS011;23691;52.486;4.650;2023-03-23T10:45:56;36.70;;;4.32;;
37851;SDS011;23691;52.486;4.650;2023-03-23T10:48:29;29.42;;;4.80;;
37851;SDS011;23691;52.486;4.650;2023-03-23T10:50:57;27.70;;;4.35;;
37851;SDS011;23691;52.486;4.650;2023-03-23T10:53:37;35.65;;;4.90;;
37851;SDS011;23691;52.486;4.650;2023-03-23T10:56:25;31.92;;;4.80;;
37851;SDS011;23691;52.486;4.650;2023-03-23T10:58:53;23.15;;;4.47;;
37851;SDS011;23691;52.486;4.650;2023-03-23T11:01:20;30.33;;;4.50;;
37851;SDS011;23691;52.486;4.650;2023-03-23T11:03:55;32.08;;;5.15;;
37851;SDS011;23691;52.486;4.650;2023-03-23T11:06:26;30.42;;;5.10;;
37851;SDS011;23691;52.486;4.650;2023-03-23T11:08:58;29.90;;;4.93;;
37851;SDS011;23691;52.486;4.650;2023-03-23T11:11:32;33.10;;;5.90;;
37851;SDS011;23691;52.486;4.650;2023-03-23T11:14:14;28.02;;;4.85;;
37851;SDS011;23691;52.486;4.650;2023-03-23T11:16:46;30.77;;;4.75;;
37851;SDS011;23691;52.486;4.650;2023-03-23T11:19:27;31.30;;;4.63;;
37851;SDS011;23691;52.486;4.650;2023-03-23T11:24:29;35.15;;;5.40;;
37851;SDS011;23691;52.486;4.650;2023-03-23T11:26:58;33.38;;;4.70;;
37851;SDS011;23691;52.486;4.650;2023-03-23T11:29:24;32.80;;;4.72;;
37851;SDS011;23691;52.486;4.650;2023-03-23T11:32:00;29.08;;;4.53;;
37851;SDS011;23691;52.486;4.650;2023-03-23T11:34:33;30.35;;;4.72;;
37851;SDS011;23691;52.486;4.650;2023-03-23T11:37:02;30.95;;;5.40;;
37851;SDS011;23691;52.486;4.650;2023-03-23T11:39:47;34.50;;;5.22;;
37851;SDS011;23691;52.486;4.650;2023-03-23T11:42:19;30.25;;;5.13;;
37851;SDS011;23691;52.486;4.650;2023-03-23T11:48:33;28.25;;;4.35;;
37851;SDS011;23691;52.486;4.650;2023-03-23T11:50:55;32.95;;;5.13;;
37851;SDS011;23691;52.486;4.650;2023-03-23T11:58:50;30.65;;;4.93;;
37851;SDS011;23691;52.486;4.650;2023-03-23T12:06:50;30.40;;;4.55;;
37851;SDS011;23691;52.486;4.650;2023-03-23T12:09:43;27.13;;;4.55;;
37851;SDS011;23691;52.486;4.650;2023-03-23T12:31:11;28.67;;;4.80;;
37851;SDS011;23691;52.486;4.650;2023-03-23T12:33:59;26.52;;;3.58;;
37851;SDS011;23691;52.486;4.650;2023-03-23T12:36:41;24.10;;;3.83;;
37851;SDS011;23691;52.486;4.650;2023-03-23T12:40:06;22.17;;;4.07;;
37851;SDS011;23691;52.486;4.650;2023-03-23T12:43:19;21.27;;;3.55;;
37851;SDS011;23691;52.486;4.650;2023-03-23T12:48:21;23.60;;;4.00;;
37851;SDS011;23691;52.486;4.650;2023-03-23T12:53:54;21.50;;;3.28;;
37851;SDS011;23691;52.486;4.650;2023-03-23T12:56:35;22.38;;;3.70;;
37851;SDS011;23691;52.486;4.650;2023-03-23T12:59:15;24.85;;;3.83;;
37851;SDS011;23691;52.486;4.650;2023-03-23T13:01:43;25.27;;;3.95;;
37851;SDS011;23691;52.486;4.650;2023-03-23T13:04:17;23.23;;;4.18;;
37851;SDS011;23691;52.486;4.650;2023-03-23T13:06:46;20.02;;;3.33;;
37851;SDS011;23691;52.486;4.650;2023-03-23T13:12:07;24.95;;;3.63;;
37851;SDS011;23691;52.486;4.650;2023-03-23T13:17:38;33.40;;;4.00;;
37851;SDS011;23691;52.486;4.650;2023-03-23T13:23:17;27.92;;;4.18;;
37851;SDS011;23691;52.486;4.650;2023-03-23T13:26:00;25.55;;;4.28;;
37851;SDS011;23691;52.486;4.650;2023-03-23T13:28:32;28.48;;;3.67;;
37851;SDS011;23691;52.486;4.650;2023-03-23T13:31:14;27.17;;;4.40;;
37851;SDS011;23691;52.486;4.650;2023-03-23T13:33:45;27.45;;;4.18;;
37851;SDS011;23691;52.486;4.650;2023-03-23T13:36:14;33.33;;;4.88;;
37851;SDS011;23691;52.486;4.650;2023-03-23T13:38:49;30.90;;;4.53;;
37851;SDS011;23691;52.486;4.650;2023-03-23T13:41:17;26.95;;;4.30;;
37851;SDS011;23691;52.486;4.650;2023-03-23T13:43:45;27.85;;;4.10;;
37851;SDS011;23691;52.486;4.650;2023-03-23T13:48:42;32.43;;;4.63;;
37851;SDS011;23691;52.486;4.650;2023-03-23T13:51:26;27.63;;;4.20;;
37851;SDS011;23691;52.486;4.650;2023-03-23T13:54:03;32.45;;;4.53;;
37851;SDS011;23691;52.486;4.650;2023-03-23T13:56:36;28.80;;;4.47;;
37851;SDS011;23691;52.486;4.650;2023-03-23T13:59:28;32.88;;;4.47;;
37851;SDS011;23691;52.486;4.650;2023-03-23T14:05:25;26.10;;;4.88;;
37851;SDS011;23691;52.486;4.650;2023-03-23T14:07:57;28.55;;;5.47;;
37851;SDS011;23691;52.486;4.650;2023-03-23T14:10:25;27.52;;;4.25;;
37851;SDS011;23691;52.486;4.650;2023-03-23T14:12:57;32.13;;;4.75;;
37851;SDS011;23691;52.486;4.650;2023-03-23T14:17:53;29.00;;;4.65;;
37851;SDS011;23691;52.486;4.650;2023-03-23T14:20:26;29.70;;;4.30;;
37851;SDS011;23691;52.486;4.650;2023-03-23T14:22:58;33.90;;;4.85;;
37851;SDS011;23691;52.486;4.650;2023-03-23T14:25:26;33.92;;;4.97;;
37851;SDS011;23691;52.486;4.650;2023-03-23T14:27:55;29.60;;;4.50;;
37851;SDS011;23691;52.486;4.650;2023-03-23T14:30:21;35.83;;;4.55;;
37851;SDS011;23691;52.486;4.650;2023-03-23T14:32:51;29.17;;;4.43;;
37851;SDS011;23691;52.486;4.650;2023-03-23T14:35:27;29.30;;;4.95;;
37851;SDS011;23691;52.486;4.650;2023-03-23T14:37:55;34.50;;;4.43;;
37851;SDS011;23691;52.486;4.650;2023-03-23T14:40:22;34.13;;;4.90;;
37851;SDS011;23691;52.486;4.650;2023-03-23T14:42:50;29.83;;;4.40;;
37851;SDS011;23691;52.486;4.650;2023-03-23T14:45:19;35.17;;;5.03;;
37851;SDS011;23691;52.486;4.650;2023-03-23T14:47:47;27.80;;;4.60;;
37851;SDS011;23691;52.486;4.650;2023-03-23T14:50:24;24.08;;;4.22;;
37851;SDS011;23691;52.486;4.650;2023-03-23T14:52:51;27.88;;;4.55;;
37851;SDS011;23691;52.486;4.650;2023-03-23T14:55:18;31.90;;;4.78;;
37851;SDS011;23691;52.486;4.650;2023-03-23T14:57:46;33.53;;;5.13;;
37851;SDS011;23691;52.486;4.650;2023-03-23T15:00:16;27.58;;;4.30;;
37851;SDS011;23691;52.486;4.650;2023-03-23T15:02:56;27.58;;;5.38;;
37851;SDS011;23691;52.486;4.650;2023-03-23T15:08:00;34.47;;;4.85;;
37851;SDS011;23691;52.486;4.650;2023-03-23T15:10:55;34.45;;;4.95;;
37851;SDS011;23691;52.486;4.650;2023-03-23T15:13:41;32.13;;;4.82;;
37851;SDS011;23691;52.486;4.650;2023-03-23T15:16:13;30.60;;;4.40;;
37851;SDS011;23691;52.486;4.650;2023-03-23T15:18:47;26.58;;;5.10;;
37851;SDS011;23691;52.486;4.650;2023-03-23T15:21:22;27.70;;;4.68;;
37851;SDS011;23691;52.486;4.650;2023-03-23T15:23:59;31.40;;;4.47;;
37851;SDS011;23691;52.486;4.650;2023-03-23T15:29:05;31.17;;;4.78;;
37851;SDS011;23691;52.486;4.650;2023-03-23T15:31:44;36.88;;;5.20;;
37851;SDS011;23691;52.486;4.650;2023-03-23T15:34:17;30.90;;;4.47;;
37851;SDS011;23691;52.486;4.650;2023-03-23T15:36:46;28.27;;;4.68;;
37851;SDS011;23691;52.486;4.650;2023-03-23T15:39:17;37.08;;;5.57;;
37851;SDS011;23691;52.486;4.650;2023-03-23T15:41:46;36.15;;;5.32;;
37851;SDS011;23691;52.486;4.650;2023-03-23T15:44:20;26.30;;;4.60;;
37851;SDS011;23691;52.486;4.650;2023-03-23T15:46:51;31.48;;;5.45;;
37851;SDS011;23691;52.486;4.650;2023-03-23T15:49:26;25.27;;;4.40;;
37851;SDS011;23691;52.486;4.650;2023-03-23T15:51:51;30.55;;;4.90;;
37851;SDS011;23691;52.486;4.650;2023-03-23T15:54:17;27.50;;;4.38;;
37851;SDS011;23691;52.486;4.650;2023-03-23T15:56:42;28.67;;;4.88;;
37851;SDS011;23691;52.486;4.650;2023-03-23T15:59:08;28.17;;;4.53;;
37851;SDS011;23691;52.486;4.650;2023-03-23T16:01:34;30.85;;;5.20;;
37851;SDS011;23691;52.486;4.650;2023-03-23T16:04:09;33.78;;;4.82;;
37851;SDS011;23691;52.486;4.650;2023-03-23T16:06:42;27.02;;;4.57;;
37851;SDS011;23691;52.486;4.650;2023-03-23T16:09:12;29.42;;;4.72;;
37851;SDS011;23691;52.486;4.650;2023-03-23T16:11:40;30.52;;;4.60;;
37851;SDS011;23691;52.486;4.650;2023-03-23T16:14:06;30.65;;;5.35;;
37851;SDS011;23691;52.486;4.650;2023-03-23T16:16:40;32.38;;;4.60;;
37851;SDS011;23691;52.486;4.650;2023-03-23T16:19:09;31.48;;;4.82;;
37851;SDS011;23691;52.486;4.650;2023-03-23T16:21:36;29.08;;;4.57;;
37851;SDS011;23691;52.486;4.650;2023-03-23T16:24:01;26.25;;;5.22;;
37851;SDS011;23691;52.486;4.650;2023-03-23T16:26:27;28.80;;;5.35;;
37851;SDS011;23691;52.486;4.650;2023-03-23T16:28:52;38.30;;;5.25;;
37851;SDS011;23691;52.486;4.650;2023-03-23T16:31:18;31.23;;;4.90;;
37851;SDS011;23691;52.486;4.650;2023-03-23T16:33:43;34.60;;;5.05;;
37851;SDS011;23691;52.486;4.650;2023-03-23T16:36:10;26.75;;;4.30;;
37851;SDS011;23691;52.486;4.650;2023-03-23T16:38:37;31.73;;;4.97;;
37851;SDS011;23691;52.486;4.650;2023-03-23T16:41:03;32.70;;;5.22;;
37851;SDS011;23691;52.486;4.650;2023-03-23T16:43:29;29.88;;;5.63;;
37851;SDS011;23691;52.486;4.650;2023-03-23T16:45:54;26.63;;;4.93;;
37851;SDS011;23691;52.486;4.650;2023-03-23T16:48:21;23.80;;;4.47;;
37851;SDS011;23691;52.486;4.650;2023-03-23T16:50:46;36.22;;;5.78;;